createdAt,value
2023-01-13T00:02:25.058Z,98817.91
2023-01-13T00:05:28.500Z,98824.97
2023-01-13T00:08:31.376Z,98809.94
2023-01-13T00:11:34.676Z,98814.38
2023-01-13T00:14:37.419Z,98805.50
2023-01-13T00:17:40.306Z,98818.78
2023-01-13T00:20:44.560Z,98807.28
2023-01-13T00:23:48.121Z,98812.56
2023-01-13T00:26:50.690Z,98807.28
2023-01-13T00:29:53.779Z,98805.53
2023-01-13T00:32:56.396Z,98803.75
2023-01-13T00:36:00.236Z,98803.72
2023-01-13T00:39:03.354Z,98807.28
2023-01-13T00:42:24.980Z,98802.00
2023-01-13T00:45:27.749Z,98792.25
2023-01-13T00:48:31.222Z,98808.16
2023-01-13T00:51:34.078Z,98806.41
2023-01-13T00:54:36.971Z,98805.47
2023-01-13T00:57:40.098Z,98806.34
2023-01-13T01:00:43.186Z,98817.84
2023-01-13T01:03:52.622Z,98809.91
2023-01-13T01:06:55.761Z,98806.38
2023-01-13T01:09:58.242Z,98804.59
2023-01-13T01:13:01.249Z,98796.66
2023-01-13T01:16:16.760Z,98801.97
2023-01-13T01:19:20.641Z,98753.34
2023-01-13T01:22:23.395Z,98788.72
2023-01-13T01:25:26.193Z,98786.94
2023-01-13T01:28:29.806Z,98781.63
2023-01-13T01:31:34.981Z,98781.63
2023-01-13T01:34:39.214Z,98778.09
2023-01-13T01:37:42.693Z,98767.53
2023-01-13T01:40:45.395Z,98760.44
2023-01-13T01:43:59.760Z,98771.06
2023-01-13T01:47:03.033Z,98778.12
2023-01-13T01:50:06.902Z,98772.81
2023-01-13T01:53:14.501Z,98773.69
2023-01-13T01:56:18.047Z,98770.19
2023-01-13T01:59:22.313Z,98767.53
2023-01-13T02:02:25.420Z,98759.56
2023-01-13T02:05:28.411Z,98759.56
2023-01-13T02:08:31.690Z,98758.69
2023-01-13T02:11:54.965Z,98761.34
2023-01-13T02:15:01.550Z,98758.69
2023-01-13T02:18:30.860Z,98752.50
2023-01-13T02:21:42.668Z,98761.34
2023-01-13T02:25:15.217Z,98754.28
2023-01-13T02:29:06.484Z,98748.09
2023-01-13T02:32:23.118Z,98745.44
2023-01-13T02:35:28.934Z,98743.66
2023-01-13T02:38:40.790Z,98749.84
2023-01-13T02:42:33.467Z,98733.09
2023-01-13T02:45:50.538Z,98741.91
2023-01-13T02:48:54.863Z,98746.31
2023-01-13T02:52:03.035Z,98720.69
2023-01-13T02:55:09.288Z,98731.28
2023-01-13T02:58:15.925Z,98727.75
2023-01-13T03:01:19.669Z,98712.75
2023-01-13T03:04:50.127Z,98715.38
2023-01-13T03:08:12.348Z,98722.47
2023-01-13T03:11:17.749Z,98717.16
2023-01-13T03:14:36.502Z,98716.25
2023-01-13T03:17:43.055Z,98721.59
2023-01-13T03:21:11.236Z,98716.28
2023-01-13T03:24:18.090Z,98707.44
2023-01-13T03:27:37.855Z,98717.16
2023-01-13T03:30:50.708Z,98710.09
2023-01-13T03:34:07.996Z,98711.88
2023-01-13T03:37:11.542Z,98717.19
2023-01-13T03:40:20.976Z,98713.63
2023-01-13T03:43:51.007Z,98709.19
2023-01-13T03:47:02.071Z,98706.53
2023-01-13T03:50:14.709Z,98700.38
2023-01-13T03:53:31.570Z,98705.69
2023-01-13T03:56:35.153Z,98699.50
2023-01-13T03:59:42.193Z,98700.38
2023-01-13T04:03:14.756Z,98703.03
2023-01-13T04:06:20.774Z,98695.09
2023-01-13T04:09:29.840Z,98710.09
2023-01-13T04:12:55.413Z,98711.00
2023-01-13T04:16:00.193Z,98703.03
2023-01-13T04:19:10.971Z,98703.91
2023-01-13T04:22:13.560Z,98709.22
2023-01-13T04:25:16.624Z,98710.09
2023-01-13T04:28:19.864Z,98704.81
2023-01-13T04:31:23.344Z,98707.44
2023-01-13T04:34:28.271Z,98709.22
2023-01-13T04:37:31.779Z,98710.97
2023-01-13T04:40:34.423Z,98717.16
2023-01-13T04:43:37.911Z,98722.47
2023-01-13T04:46:40.554Z,98709.22
2023-01-13T04:49:43.771Z,98716.28
2023-01-13T04:52:47.588Z,98716.28
2023-01-13T04:55:50.646Z,98712.75
2023-01-13T04:58:53.364Z,98719.84
2023-01-13T05:01:56.293Z,98721.59
2023-01-13T05:04:59.315Z,98710.12
2023-01-13T05:08:02.203Z,98714.53
2023-01-13T05:11:25.178Z,98716.28
2023-01-13T05:14:47.069Z,98688.03
2023-01-13T05:17:50.417Z,98720.66
2023-01-13T05:20:53.631Z,98721.53
2023-01-13T05:24:14.879Z,98730.34
2023-01-13T05:27:18.233Z,98729.41
2023-01-13T05:30:22.739Z,98717.00
2023-01-13T05:33:25.570Z,98723.22
2023-01-13T05:36:28.754Z,98724.12
2023-01-13T05:39:51.818Z,98727.69
2023-01-13T05:43:20.954Z,98726.75
2023-01-13T05:46:24.177Z,98734.66
2023-01-13T05:49:27.195Z,98728.37
2023-01-13T05:52:30.303Z,98729.19
2023-01-13T05:55:33.085Z,98741.50
2023-01-13T05:58:37.077Z,98737.16
2023-01-13T06:01:39.988Z,98738.00
2023-01-13T06:04:43.090Z,98744.97
2023-01-13T06:07:45.918Z,98745.75
2023-01-13T06:10:50.166Z,98750.09
2023-01-13T06:13:53.010Z,98747.41
2023-01-13T06:16:55.993Z,98748.25
2023-01-13T06:20:00.579Z,98754.38
2023-01-13T06:23:04.079Z,98732.16
2023-01-13T06:26:14.842Z,98735.47
2023-01-13T06:29:18.054Z,98749.47
2023-01-13T06:32:32.921Z,98754.62
2023-01-13T06:35:37.441Z,98737.75
2023-01-13T06:38:43.067Z,98750.97
2023-01-13T06:42:07.733Z,98747.47
2023-01-13T06:45:11.068Z,98763.34
2023-01-13T06:48:15.465Z,98747.41
2023-01-13T06:51:18.446Z,98756.22
2023-01-13T06:54:22.109Z,98761.50
2023-01-13T06:57:25.115Z,98762.38
2023-01-13T07:00:29.183Z,98761.50
2023-01-13T07:03:31.936Z,98764.19
2023-01-13T07:06:35.425Z,98762.50
2023-01-13T07:09:38.394Z,98763.41
2023-01-13T07:13:00.502Z,98765.22
2023-01-13T07:16:05.837Z,98772.31
2023-01-13T07:19:09.388Z,98771.44
2023-01-13T07:22:13.775Z,98772.34
2023-01-13T07:25:16.918Z,98764.44
2023-01-13T07:28:19.629Z,98764.41
2023-01-13T07:31:22.695Z,98770.59
2023-01-13T07:34:25.690Z,98759.09
2023-01-13T07:37:29.101Z,98777.62
2023-01-13T07:40:32.213Z,98775.84
2023-01-13T07:43:35.372Z,98767.00
2023-01-13T07:46:39.523Z,98772.28
2023-01-13T07:49:42.661Z,98774.06
2023-01-13T07:52:45.543Z,98771.41
2023-01-13T07:55:49.770Z,98778.44
2023-01-13T07:58:53.422Z,98782.88
2023-01-13T08:01:57.243Z,98779.31
2023-01-13T08:05:00.352Z,98775.78
2023-01-13T08:08:03.531Z,98788.16
2023-01-13T08:11:08.039Z,98781.13
2023-01-13T08:14:10.965Z,98790.84
2023-01-13T08:17:14.082Z,98797.91
2023-01-13T08:20:17.179Z,98805.81
2023-01-13T08:23:24.456Z,98800.59
2023-01-13T08:26:27.790Z,98811.28
2023-01-13T08:29:30.832Z,98808.72
2023-01-13T08:32:33.592Z,98813.13
2023-01-13T08:35:38.267Z,98810.56
2023-01-13T08:38:41.678Z,98812.31
2023-01-13T08:41:56.753Z,98810.56
2023-01-13T08:44:59.858Z,98800.81
2023-01-13T08:48:03.860Z,98805.22
2023-01-13T08:51:09.084Z,98805.25
2023-01-13T08:54:12.857Z,98795.56
2023-01-13T08:57:15.625Z,98804.41
2023-01-13T09:00:18.989Z,98810.63
2023-01-13T09:03:21.916Z,98812.37
2023-01-13T09:06:24.917Z,98808.00
2023-01-13T09:09:28.031Z,98808.91
2023-01-13T09:12:50.276Z,98801.00
2023-01-13T09:15:56.694Z,98804.50
2023-01-13T09:18:59.799Z,98809.81
2023-01-13T09:22:02.919Z,98797.47
2023-01-13T09:25:06.529Z,98795.75
2023-01-13T09:28:09.306Z,98772.78
2023-01-13T09:31:12.863Z,98795.75
2023-01-13T09:34:36.426Z,98794.00
2023-01-13T09:37:40.847Z,98787.81
2023-01-13T09:40:48.044Z,98792.22
2023-01-13T09:43:56.775Z,98794.88
2023-01-13T09:47:04.314Z,98786.06
2023-01-13T09:50:10.557Z,98788.72
2023-01-13T09:53:19.994Z,98798.44
2023-01-13T09:56:23.717Z,98779.03
2023-01-13T09:59:36.478Z,98793.12
2023-01-13T10:02:58.573Z,98786.97
2023-01-13T10:06:21.807Z,98799.31
2023-01-13T10:09:32.829Z,98794.03
2023-01-13T10:12:54.510Z,98792.25
2023-01-13T10:16:08.622Z,98789.59
2023-01-13T10:19:18.928Z,98791.38
2023-01-13T10:22:36.548Z,98789.59
2023-01-13T10:25:55.164Z,98793.12
2023-01-13T10:28:57.978Z,98786.94
2023-01-13T10:32:01.122Z,98796.63
2023-01-13T10:35:03.932Z,98789.56
2023-01-13T10:38:25.039Z,98793.09
2023-01-13T10:41:28.049Z,98779.84
2023-01-13T10:44:31.568Z,98786.03
2023-01-13T10:47:36.578Z,98775.44
2023-01-13T10:50:40.890Z,98772.75
2023-01-13T10:54:13.253Z,98771.88
2023-01-13T10:57:20.916Z,98771.91
2023-01-13T11:00:27.724Z,98761.22
2023-01-13T11:03:42.968Z,98743.56
2023-01-13T11:06:47.363Z,98766.50
2023-01-13T11:10:38.812Z,98752.28
2023-01-13T11:14:02.423Z,98750.41
2023-01-13T11:17:29.975Z,98741.56
2023-01-13T11:20:33.822Z,98753.06
2023-01-13T11:23:42.834Z,98742.38
2023-01-13T11:26:51.344Z,98738.72
2023-01-13T11:30:30.416Z,98728.94
2023-01-13T11:33:43.219Z,98734.19
2023-01-13T11:36:52.074Z,98728.84
2023-01-13T11:40:06.094Z,98717.38
2023-01-13T11:43:19.218Z,98725.47
2023-01-13T11:46:28.671Z,98730.81
2023-01-13T11:49:33.226Z,98712.25
2023-01-13T11:52:53.364Z,98690.19
2023-01-13T11:56:50.916Z,98704.34
2023-01-13T11:59:59.065Z,98700.81
2023-01-13T12:03:17.514Z,98701.75
2023-01-13T12:06:39.259Z,98690.25
2023-01-13T12:09:48.968Z,98675.25
2023-01-13T12:13:25.616Z,98670.81
2023-01-13T12:16:32.498Z,98654.91
2023-01-13T12:19:36.137Z,98652.22
2023-01-13T12:22:39.947Z,98656.66
2023-01-13T12:25:45.907Z,98648.75
2023-01-13T12:29:13.838Z,98646.09
2023-01-13T12:32:24.523Z,98640.78
2023-01-13T12:35:42.418Z,98624.03
2023-01-13T12:38:50.528Z,98639.69
2023-01-13T12:42:12.826Z,98630.91
2023-01-13T12:45:18.403Z,98635.34
2023-01-13T12:48:46.462Z,98634.56
2023-01-13T12:51:52.432Z,98634.59
2023-01-13T12:54:55.791Z,98639.00
2023-01-13T12:58:04.961Z,98644.31
2023-01-13T13:01:15.618Z,98646.97
2023-01-13T13:04:43.730Z,98651.37
2023-01-13T13:07:49.926Z,98656.66
2023-01-13T13:11:07.163Z,98669.06
2023-01-13T13:14:13.853Z,98662.88
2023-01-13T13:17:19.922Z,98648.75
2023-01-13T13:20:54.445Z,98670.84
2023-01-13T13:23:57.488Z,98677.91
2023-01-13T13:27:19.943Z,98681.47
2023-01-13T13:30:22.924Z,98681.47
2023-01-13T13:33:35.473Z,98686.78
2023-01-13T13:36:41.799Z,98691.22
2023-01-13T13:40:04.069Z,98688.56
2023-01-13T13:43:31.105Z,98681.47
2023-01-13T13:46:48.060Z,98677.97
2023-01-13T13:49:54.556Z,98681.50
2023-01-13T13:53:05.927Z,98684.16
2023-01-13T13:56:19.025Z,98693.00
2023-01-13T13:59:24.858Z,98675.34
2023-01-13T14:02:35.181Z,98674.47
2023-01-13T14:05:38.236Z,98663.03
2023-01-13T14:08:46.698Z,98675.37
2023-01-13T14:12:00.167Z,98678.94
2023-01-13T14:15:03.255Z,98681.59
2023-01-13T14:18:13.943Z,98669.25
2023-01-13T14:21:26.824Z,98678.06
2023-01-13T14:24:30.904Z,98680.72
2023-01-13T14:27:35.327Z,98686.94
2023-01-13T14:30:40.267Z,98690.47
2023-01-13T14:33:52.018Z,98686.03
2023-01-13T14:36:55.018Z,98697.53
2023-01-13T14:39:57.987Z,98686.91
2023-01-13T14:43:01.931Z,98682.50
2023-01-13T14:46:04.996Z,98687.81
2023-01-13T14:49:39.713Z,98691.34
2023-01-13T14:52:51.059Z,98684.28
2023-01-13T14:55:54.237Z,98686.94
2023-01-13T14:58:56.867Z,98666.66
2023-01-13T15:02:01.710Z,98680.81
2023-01-13T15:05:19.795Z,98692.28
2023-01-13T15:08:33.979Z,98699.34
2023-01-13T15:11:41.010Z,98707.34
2023-01-13T15:14:44.301Z,98694.06
2023-01-13T15:17:47.395Z,98687.00
2023-01-13T15:20:53.834Z,98692.28
2023-01-13T15:23:56.547Z,98690.50
2023-01-13T15:26:59.476Z,98692.28
2023-01-13T15:30:20.116Z,98686.94
2023-01-13T15:33:23.195Z,98682.53
2023-01-13T15:36:33.775Z,98681.63
2023-01-13T15:39:37.031Z,98686.81
2023-01-13T15:42:58.767Z,98689.59
2023-01-13T15:46:21.838Z,98698.44
2023-01-13T15:49:42.782Z,98699.34
2023-01-13T15:52:45.675Z,98695.78
2023-01-13T15:55:51.441Z,98694.03
2023-01-13T15:58:55.206Z,98684.31
2023-01-13T16:01:58.150Z,98686.09
2023-01-13T16:05:01.325Z,98692.31
2023-01-13T16:08:04.877Z,98691.41
2023-01-13T16:11:09.517Z,98694.09
2023-01-13T16:14:12.220Z,98683.50
2023-01-13T16:17:20.066Z,98687.06
2023-01-13T16:20:24.994Z,98705.56
2023-01-13T16:23:28.252Z,98697.63
2023-01-13T16:26:32.785Z,98702.91
2023-01-13T16:29:35.873Z,98699.38
2023-01-13T16:32:38.569Z,98706.44
2023-01-13T16:36:09.429Z,98705.56
2023-01-13T16:39:06.140Z,98711.72
2023-01-13T16:42:09.287Z,98711.72
2023-01-13T16:45:12.609Z,98704.66
2023-01-13T16:48:20.183Z,98709.03
2023-01-13T16:51:23.860Z,98703.75
2023-01-13T16:54:26.786Z,98693.13
2023-01-13T16:57:29.741Z,98707.25
2023-01-13T17:00:33.064Z,98708.53
2023-01-13T17:03:36.019Z,98714.03
2023-01-13T17:07:02.066Z,98708.84
2023-01-13T17:10:05.504Z,98713.31
2023-01-13T17:13:16.471Z,98715.97
2023-01-13T17:16:22.203Z,98712.47
2023-01-13T17:19:25.892Z,98707.19
2023-01-13T17:22:30.825Z,98706.31
2023-01-13T17:25:34.230Z,98716.94
2023-01-13T17:28:36.981Z,98707.19
2023-01-13T17:31:40.141Z,98716.94
2023-01-13T17:34:43.846Z,98716.06
2023-01-13T17:37:47.067Z,98716.94
2023-01-13T17:40:50.682Z,98707.19
2023-01-13T17:43:54.259Z,98709.88
2023-01-13T17:46:57.021Z,98703.66
2023-01-13T17:50:04.261Z,98711.63
2023-01-13T17:53:07.865Z,98720.50
2023-01-13T17:56:14.208Z,98647.25
2023-01-13T17:59:21.043Z,98691.38
2023-01-13T18:02:24.873Z,98724.91
2023-01-13T18:05:28.086Z,98730.22
2023-01-13T18:08:30.870Z,98738.16
2023-01-13T18:11:34.212Z,98738.16
2023-01-13T18:14:37.053Z,98707.28
2023-01-13T18:17:40.162Z,98594.34
2023-01-13T18:21:03.644Z,98738.16
2023-01-13T18:24:30.598Z,98732.84
2023-01-13T18:27:35.658Z,98731.13
2023-01-13T18:30:40.619Z,98728.47
2023-01-13T18:33:43.631Z,98737.28
2023-01-13T18:36:46.838Z,98635.84
2023-01-13T18:39:49.742Z,98667.56
2023-01-13T18:42:55.138Z,98739.94
2023-01-13T18:45:57.991Z,98740.84
2023-01-13T18:49:01.082Z,98754.12
2023-01-13T18:52:04.385Z,98653.50
2023-01-13T18:55:07.899Z,98711.75
2023-01-13T18:58:10.861Z,98756.78
2023-01-13T19:01:16.919Z,98689.66
2023-01-13T19:04:20.095Z,98747.94
2023-01-13T19:07:26.945Z,98739.09
2023-01-13T19:10:32.641Z,98744.37
2023-01-13T19:13:36.502Z,98751.47
2023-01-13T19:16:39.359Z,98722.34
2023-01-13T19:19:44.882Z,98746.16
2023-01-13T19:22:54.041Z,98747.94
2023-01-13T19:26:01.517Z,98724.09
2023-01-13T19:29:04.353Z,98750.59
2023-01-13T19:32:08.097Z,98749.69
2023-01-13T19:35:16.032Z,98665.84
2023-01-13T19:38:19.741Z,98647.34
2023-01-13T19:41:45.581Z,98753.22
2023-01-13T19:45:07.531Z,98671.16
2023-01-13T19:48:11.089Z,98742.63
2023-01-13T19:51:14.787Z,98771.78
2023-01-13T19:54:17.674Z,98762.97
2023-01-13T19:57:20.896Z,98640.28
2023-01-13T20:00:24.201Z,98770.88
2023-01-13T20:03:31.192Z,98740.88
2023-01-13T20:06:34.284Z,98759.44
2023-01-13T20:09:37.685Z,98777.09
2023-01-13T20:12:41.735Z,98794.78
2023-01-13T20:15:45.347Z,98799.19
2023-01-13T20:18:51.766Z,98806.28
2023-01-13T20:21:55.087Z,98812.47
2023-01-13T20:24:58.553Z,98819.56
2023-01-13T20:28:02.292Z,98818.66
2023-01-13T20:31:09.763Z,98822.16
2023-01-13T20:34:14.646Z,98820.44
2023-01-13T20:37:17.583Z,98787.72
2023-01-13T20:40:20.928Z,98808.94
2023-01-13T20:43:23.988Z,98805.41
2023-01-13T20:46:27.761Z,98786.84
2023-01-13T20:49:30.997Z,98774.47
2023-01-13T20:52:34.174Z,98773.53
2023-01-13T20:55:39.918Z,98770.91
2023-01-13T20:58:44.225Z,98770.91
2023-01-13T21:01:47.249Z,98786.84
2023-01-13T21:04:50.511Z,98814.28
2023-01-13T21:07:53.321Z,98799.28
2023-01-13T21:11:05.337Z,98820.44
2023-01-13T21:14:42.356Z,98814.25
2023-01-13T21:18:05.012Z,98826.59
2023-01-13T21:21:14.193Z,98819.53
2023-01-13T21:24:17.512Z,98804.50
2023-01-13T21:27:20.643Z,98808.00
2023-01-13T21:30:24.826Z,98818.63
2023-01-13T21:33:27.743Z,98794.75
2023-01-13T21:36:31.010Z,98809.78
2023-01-13T21:39:33.711Z,98808.91
2023-01-13T21:42:55.472Z,98808.91
2023-01-13T21:46:16.788Z,98807.16
2023-01-13T21:49:19.907Z,98793.00
2023-01-13T21:52:25.622Z,98794.75
2023-01-13T21:55:29.832Z,98791.22
2023-01-13T21:58:32.677Z,98790.34
2023-01-13T22:02:00.210Z,98657.03
2023-01-13T22:05:04.068Z,98753.22
2023-01-13T22:08:08.112Z,98767.31
2023-01-13T22:11:12.857Z,98754.06
2023-01-13T22:14:16.221Z,98762.00
2023-01-13T22:17:20.918Z,98763.75
2023-01-13T22:20:24.119Z,98754.91
2023-01-13T22:23:29.296Z,98741.66
2023-01-13T22:26:32.126Z,98746.06
2023-01-13T22:29:37.616Z,98750.50
2023-01-13T22:32:40.656Z,98761.97
2023-01-13T22:35:44.116Z,98780.59
2023-01-13T22:38:47.176Z,98818.63
2023-01-13T22:41:53.472Z,98846.94
2023-01-13T22:44:56.489Z,98865.53
2023-01-13T22:47:59.660Z,98866.41
2023-01-13T22:51:10.973Z,98869.94
2023-01-13T22:54:14.529Z,98868.16
2023-01-13T22:57:21.883Z,98869.94
2023-01-13T23:00:27.092Z,98873.47
2023-01-13T23:03:29.970Z,98870.81
2023-01-13T23:06:33.961Z,98859.28
2023-01-13T23:09:36.667Z,98858.41
2023-01-13T23:12:39.887Z,98855.75
2023-01-13T23:15:42.831Z,98840.69
2023-01-13T23:18:48.125Z,98818.63
2023-01-13T23:21:50.905Z,98833.59
2023-01-13T23:24:54.092Z,98820.37
2023-01-13T23:27:56.816Z,98825.69
2023-01-13T23:31:00.386Z,98798.28
2023-01-13T23:34:03.315Z,98800.03
2023-01-13T23:37:06.621Z,98656.16
2023-01-13T23:40:10.339Z,98799.13
2023-01-13T23:43:15.007Z,98791.19
2023-01-13T23:46:17.783Z,98754.09
2023-01-13T23:49:20.952Z,98746.16
2023-01-13T23:52:24.078Z,98781.47
2023-01-13T23:55:27.574Z,98777.06
2023-01-13T23:58:30.855Z,98701.16
